createdAt,value
2018-07-19T00:02:01.661Z,16.38
2018-07-19T00:04:30.423Z,16.28
2018-07-19T00:06:59.145Z,16.21
2018-07-19T00:09:27.926Z,16.15
2018-07-19T00:11:56.930Z,16.12
2018-07-19T00:14:25.645Z,16.06
2018-07-19T00:16:55.146Z,16.01
2018-07-19T00:19:24.005Z,15.93
2018-07-19T00:21:52.670Z,15.88
2018-07-19T00:24:21.407Z,15.85
2018-07-19T00:26:50.037Z,15.89
2018-07-19T00:29:18.711Z,15.92
2018-07-19T00:31:47.517Z,15.92
2018-07-19T00:34:16.268Z,15.86
2018-07-19T00:36:44.998Z,15.78
2018-07-19T00:39:13.823Z,15.76
2018-07-19T00:41:45.427Z,15.74
2018-07-19T00:44:15.876Z,15.70
2018-07-19T00:46:45.066Z,15.62
2018-07-19T00:49:13.826Z,15.56
2018-07-19T00:51:42.457Z,15.56
2018-07-19T00:54:11.215Z,15.58
2018-07-19T00:56:39.808Z,15.55
2018-07-19T00:59:08.584Z,15.47
2018-07-19T01:01:37.319Z,15.41
2018-07-19T01:04:06.204Z,15.37
2018-07-19T01:06:35.093Z,15.29
2018-07-19T01:09:04.698Z,15.25
2018-07-19T01:11:39.997Z,15.17
2018-07-19T01:14:09.290Z,15.18
2018-07-19T01:16:37.989Z,15.22
2018-07-19T01:19:06.555Z,15.25
2018-07-19T01:21:35.225Z,15.20
2018-07-19T01:24:04.049Z,15.21
2018-07-19T01:26:32.652Z,15.22
2018-07-19T01:29:01.238Z,15.21
2018-07-19T01:31:29.886Z,15.25
2018-07-19T01:33:58.513Z,15.24
2018-07-19T01:36:27.210Z,15.27
2018-07-19T01:38:55.849Z,15.22
2018-07-19T01:42:40.275Z,15.12
2018-07-19T01:45:10.166Z,14.99
2018-07-19T01:47:38.855Z,14.83
2018-07-19T01:50:08.796Z,14.74
2018-07-19T01:52:37.597Z,14.71
2018-07-19T01:55:06.957Z,14.77
2018-07-19T01:57:35.691Z,14.77
2018-07-19T02:00:04.739Z,14.77
2018-07-19T02:02:33.394Z,14.78
2018-07-19T02:05:02.502Z,14.78
2018-07-19T02:07:31.357Z,14.70
2018-07-19T02:10:00.085Z,14.63
2018-07-19T02:12:28.830Z,14.58
2018-07-19T02:14:57.495Z,14.55
2018-07-19T02:17:26.319Z,14.51
2018-07-19T02:19:55.158Z,14.51
2018-07-19T02:22:23.988Z,14.52
2018-07-19T02:24:52.689Z,14.56
2018-07-19T02:27:21.497Z,14.57
2018-07-19T02:29:50.227Z,14.53
2018-07-19T02:32:18.967Z,14.46
2018-07-19T02:34:47.718Z,14.38
2018-07-19T02:37:16.450Z,14.32
2018-07-19T02:39:45.084Z,14.28
2018-07-19T02:42:14.434Z,14.24
2018-07-19T02:44:43.311Z,14.16
2018-07-19T02:47:12.361Z,14.06
2018-07-19T02:49:42.325Z,11.36
2018-07-19T02:52:11.141Z,14.00
2018-07-19T02:54:39.861Z,13.95
2018-07-19T02:57:08.765Z,13.94
2018-07-19T02:59:38.097Z,13.88
2018-07-19T03:02:07.041Z,13.87
2018-07-19T03:04:35.952Z,13.84
2018-07-19T03:07:05.493Z,13.75
2018-07-19T03:09:34.510Z,13.66
2018-07-19T03:12:03.278Z,13.61
2018-07-19T03:14:32.038Z,13.57
2018-07-19T03:17:00.818Z,13.52
2018-07-19T03:19:29.546Z,13.54
2018-07-19T03:21:58.385Z,13.61
2018-07-19T03:24:27.066Z,13.67
2018-07-19T03:26:55.665Z,13.67
2018-07-19T03:29:24.378Z,13.67
2018-07-19T03:31:53.160Z,13.66
2018-07-19T03:34:22.022Z,13.67
2018-07-19T03:36:50.835Z,13.69
2018-07-19T03:39:19.609Z,13.65
2018-07-19T03:41:48.458Z,13.78
2018-07-19T03:44:19.342Z,13.96
2018-07-19T03:46:48.146Z,14.06
2018-07-19T03:49:16.917Z,14.29
2018-07-19T03:51:45.504Z,14.57
2018-07-19T03:54:14.577Z,14.86
2018-07-19T03:56:43.524Z,15.17
2018-07-19T03:59:12.163Z,15.47
2018-07-19T04:01:41.172Z,15.75
2018-07-19T04:04:10.141Z,16.09
2018-07-19T04:06:38.982Z,16.53
2018-07-19T04:09:08.265Z,16.98
2018-07-19T04:11:37.385Z,17.35
2018-07-19T04:14:06.333Z,17.55
2018-07-19T04:16:35.092Z,17.64
2018-07-19T04:19:03.849Z,18.03
2018-07-19T04:21:33.755Z,18.24
2018-07-19T04:24:03.233Z,18.42
2018-07-19T04:26:32.678Z,18.62
2018-07-19T04:29:01.462Z,19.06
2018-07-19T04:31:30.328Z,19.65
2018-07-19T04:33:59.637Z,20.02
2018-07-19T04:36:34.897Z,20.28
2018-07-19T04:39:04.679Z,20.26
2018-07-19T04:41:33.660Z,20.15
2018-07-19T04:44:02.325Z,20.21
2018-07-19T04:46:31.005Z,20.22
2018-07-19T04:48:59.597Z,20.54
2018-07-19T04:51:28.269Z,20.91
2018-07-19T04:53:56.996Z,21.14
2018-07-19T04:56:25.748Z,21.73
2018-07-19T04:58:54.476Z,21.96
2018-07-19T05:01:23.156Z,22.06
2018-07-19T05:03:51.941Z,22.89
2018-07-19T05:06:20.562Z,23.73
2018-07-19T05:08:49.330Z,24.23
2018-07-19T05:11:18.000Z,24.67
2018-07-19T05:13:46.905Z,24.56
2018-07-19T05:16:15.532Z,24.65
2018-07-19T05:18:44.269Z,24.87
2018-07-19T05:21:13.220Z,25.13
2018-07-19T05:23:41.932Z,24.79
2018-07-19T05:26:10.609Z,25.49
2018-07-19T05:28:39.490Z,25.41
2018-07-19T05:31:08.293Z,25.80
2018-07-19T05:33:37.062Z,26.20
2018-07-19T05:36:05.773Z,25.87
2018-07-19T05:38:34.511Z,26.10
2018-07-19T05:41:03.139Z,25.96
2018-07-19T05:43:31.944Z,26.15
2018-07-19T05:46:00.542Z,27.43
2018-07-19T05:48:30.102Z,27.16
2018-07-19T05:50:58.717Z,27.11
2018-07-19T05:53:27.331Z,26.89
2018-07-19T05:55:56.344Z,27.31
2018-07-19T05:58:25.020Z,27.08
2018-07-19T06:00:53.767Z,26.58
2018-07-19T06:03:22.434Z,27.53
2018-07-19T06:05:51.088Z,27.60
2018-07-19T06:08:19.656Z,27.38
2018-07-19T06:10:48.233Z,27.62
2018-07-19T06:13:16.839Z,27.73
2018-07-19T06:15:45.610Z,28.44
2018-07-19T06:18:14.222Z,30.43
2018-07-19T06:20:42.913Z,30.92
2018-07-19T06:23:11.514Z,31.26
2018-07-19T06:25:40.298Z,31.18
2018-07-19T06:28:08.984Z,30.69
2018-07-19T06:30:37.641Z,30.56
2018-07-19T06:33:06.550Z,31.81
2018-07-19T06:35:35.149Z,32.86
2018-07-19T06:38:03.725Z,32.31
2018-07-19T06:40:32.416Z,32.85
2018-07-19T06:43:01.041Z,33.52
2018-07-19T06:45:29.687Z,33.44
2018-07-19T06:47:58.251Z,34.75
2018-07-19T06:50:26.862Z,33.28
2018-07-19T06:52:55.520Z,33.28
2018-07-19T06:55:24.262Z,32.93
2018-07-19T06:57:52.938Z,33.54
2018-07-19T07:00:21.649Z,33.37
2018-07-19T07:02:50.396Z,32.27
2018-07-19T07:05:19.034Z,31.67
2018-07-19T07:07:47.715Z,31.73
2018-07-19T07:10:16.370Z,32.38
2018-07-19T07:12:45.015Z,32.71
2018-07-19T07:15:13.610Z,32.69
2018-07-19T07:17:42.283Z,33.14
2018-07-19T07:20:10.989Z,33.32
2018-07-19T07:22:39.657Z,33.89
2018-07-19T07:25:08.242Z,34.35
2018-07-19T07:27:36.977Z,33.43
2018-07-19T07:30:06.187Z,34.59
2018-07-19T07:32:34.748Z,35.74
2018-07-19T07:35:03.357Z,35.35
2018-07-19T07:37:31.937Z,34.84
2018-07-19T07:40:00.553Z,34.79
2018-07-19T07:42:29.274Z,35.84
2018-07-19T07:44:57.896Z,35.41
2018-07-19T07:47:26.533Z,36.07
2018-07-19T07:49:55.146Z,34.66
2018-07-19T07:52:23.857Z,35.99
2018-07-19T07:54:52.514Z,34.68
2018-07-19T07:57:21.149Z,35.64
2018-07-19T07:59:49.858Z,34.99
2018-07-19T08:02:18.467Z,33.50
2018-07-19T08:04:47.117Z,35.25
2018-07-19T08:07:15.731Z,37.31
2018-07-19T08:09:44.574Z,37.68
2018-07-19T08:12:13.212Z,36.42
2018-07-19T08:14:41.880Z,34.27
2018-07-19T08:17:10.482Z,33.31
2018-07-19T08:19:39.178Z,34.31
2018-07-19T08:22:07.858Z,33.85
2018-07-19T08:24:36.534Z,33.81
2018-07-19T08:27:05.194Z,35.09
2018-07-19T08:29:33.788Z,35.78
2018-07-19T08:32:02.390Z,37.66
2018-07-19T08:34:31.070Z,36.44
2018-07-19T08:36:59.811Z,35.53
2018-07-19T08:39:28.432Z,36.63
2018-07-19T08:41:57.048Z,36.47
2018-07-19T08:44:25.665Z,37.59
2018-07-19T08:46:54.217Z,36.26
2018-07-19T08:49:22.759Z,37.80
2018-07-19T08:51:51.441Z,39.11
2018-07-19T08:54:20.008Z,39.95
2018-07-19T08:56:48.589Z,37.18
2018-07-19T08:59:17.162Z,34.89
2018-07-19T09:01:45.718Z,34.87
2018-07-19T09:04:14.310Z,36.28
2018-07-19T09:06:42.919Z,36.64
2018-07-19T09:09:11.625Z,36.68
2018-07-19T09:11:40.181Z,36.29
2018-07-19T09:14:08.790Z,36.28
2018-07-19T09:16:37.378Z,37.44
2018-07-19T09:19:05.959Z,37.93
2018-07-19T09:21:34.522Z,37.37
2018-07-19T09:24:03.154Z,39.37
2018-07-19T09:26:31.798Z,38.75
2018-07-19T09:29:00.428Z,39.55
2018-07-19T09:31:28.996Z,38.15
2018-07-19T09:33:57.609Z,38.28
2018-07-19T09:36:26.199Z,39.22
2018-07-19T09:38:54.918Z,40.56
2018-07-19T09:41:23.640Z,40.91
2018-07-19T09:43:52.395Z,41.28
2018-07-19T09:46:20.979Z,39.39
2018-07-19T09:48:49.583Z,38.95
2018-07-19T09:51:18.155Z,39.88
2018-07-19T09:53:46.793Z,38.21
2018-07-19T09:56:15.390Z,40.11
2018-07-19T09:58:44.006Z,41.00
2018-07-19T10:01:19.640Z,41.38
2018-07-19T10:03:49.615Z,41.64
2018-07-19T10:06:18.270Z,42.16
2018-07-19T10:08:46.923Z,40.99
2018-07-19T10:11:16.017Z,41.10
2018-07-19T10:13:45.046Z,41.14
2018-07-19T10:16:13.565Z,41.42
2018-07-19T10:18:42.466Z,41.44
2018-07-19T10:21:11.150Z,41.44
2018-07-19T10:23:39.881Z,39.93
2018-07-19T10:26:08.535Z,40.01
2018-07-19T10:28:37.197Z,39.19
2018-07-19T10:31:05.770Z,39.33
2018-07-19T10:33:34.410Z,40.14
2018-07-19T10:36:03.016Z,41.11
2018-07-19T10:38:31.611Z,41.39
2018-07-19T10:41:00.164Z,41.82
2018-07-19T10:43:34.588Z,42.06
2018-07-19T10:46:04.620Z,41.07
2018-07-19T10:48:38.044Z,41.71
2018-07-19T10:51:11.754Z,41.38
2018-07-19T10:53:42.022Z,41.48
2018-07-19T10:56:10.576Z,40.91
2018-07-19T10:58:39.331Z,41.91
2018-07-19T11:01:08.131Z,42.40
2018-07-19T11:03:36.767Z,41.77
2018-07-19T11:06:05.367Z,41.44
2018-07-19T11:08:33.922Z,40.86
2018-07-19T11:11:02.483Z,41.21
2018-07-19T11:13:31.109Z,40.63
2018-07-19T11:15:59.618Z,39.78
2018-07-19T11:18:28.777Z,39.14
2018-07-19T11:20:57.281Z,38.72
2018-07-19T11:23:25.921Z,38.01
2018-07-19T11:25:54.467Z,37.51
2018-07-19T11:28:23.048Z,36.87
2018-07-19T11:30:51.572Z,36.32
2018-07-19T11:33:20.110Z,35.70
2018-07-19T11:35:48.990Z,34.96
2018-07-19T11:38:17.702Z,34.20
2018-07-19T11:40:46.265Z,33.94
2018-07-19T11:43:14.829Z,32.75
2018-07-19T11:45:43.415Z,33.42
2018-07-19T11:48:11.957Z,33.91
2018-07-19T11:50:40.523Z,34.24
2018-07-19T11:53:09.162Z,33.70
2018-07-19T11:55:37.826Z,34.07
2018-07-19T11:58:06.509Z,34.49
2018-07-19T12:00:35.006Z,33.91
2018-07-19T12:03:03.647Z,32.62
2018-07-19T12:05:32.148Z,30.86
2018-07-19T12:08:00.656Z,30.63
2018-07-19T12:10:29.212Z,30.75
2018-07-19T12:12:57.787Z,30.90
2018-07-19T12:15:26.325Z,30.30
2018-07-19T12:17:54.906Z,30.50
2018-07-19T12:20:23.443Z,30.72
2018-07-19T12:22:51.974Z,30.83
2018-07-19T12:25:20.525Z,30.90
2018-07-19T12:27:49.075Z,30.74
2018-07-19T12:30:17.625Z,30.76
2018-07-19T12:32:46.140Z,30.83
2018-07-19T12:35:14.666Z,30.79
2018-07-19T12:37:43.218Z,31.03
2018-07-19T12:40:11.762Z,31.11
2018-07-19T12:42:40.329Z,30.90
2018-07-19T12:45:08.884Z,30.69
2018-07-19T12:47:37.491Z,30.70
2018-07-19T12:50:06.677Z,30.15
2018-07-19T12:52:35.252Z,29.86
2018-07-19T12:55:03.819Z,29.54
2018-07-19T12:57:32.314Z,29.81
2018-07-19T13:00:00.897Z,29.85
2018-07-19T13:02:29.442Z,30.01
2018-07-19T13:04:58.051Z,30.26
2018-07-19T13:07:26.580Z,30.52
2018-07-19T13:09:55.094Z,30.54
2018-07-19T13:12:23.731Z,30.58
2018-07-19T13:14:52.287Z,30.74
2018-07-19T13:17:20.893Z,30.77
2018-07-19T13:19:49.380Z,30.82
2018-07-19T13:22:19.665Z,30.76
2018-07-19T13:24:48.280Z,30.70
2018-07-19T13:27:16.816Z,30.51
2018-07-19T13:29:45.357Z,30.27
2018-07-19T13:32:13.920Z,30.14
2018-07-19T13:34:42.510Z,30.12
2018-07-19T13:37:11.104Z,30.30
2018-07-19T13:39:39.840Z,30.34
2018-07-19T13:42:08.376Z,30.44
2018-07-19T13:44:36.890Z,30.09
2018-07-19T13:47:05.425Z,29.90
2018-07-19T13:49:34.185Z,29.86
2018-07-19T13:52:02.879Z,29.74
2018-07-19T13:54:47.554Z,30.06
2018-07-19T13:57:16.282Z,30.17
2018-07-19T13:59:44.862Z,29.97
2018-07-19T14:02:14.750Z,30.10
2018-07-19T14:04:43.409Z,30.01
2018-07-19T14:07:12.243Z,29.96
2018-07-19T14:09:42.613Z,30.13
2018-07-19T14:12:13.969Z,30.23
2018-07-19T14:14:44.303Z,30.15
2018-07-19T14:17:13.870Z,30.15
2018-07-19T14:19:42.726Z,29.70
2018-07-19T14:22:11.902Z,29.83
2018-07-19T14:24:40.841Z,29.79
2018-07-19T14:27:09.880Z,30.04
2018-07-19T14:29:39.189Z,29.96
2018-07-19T14:32:08.475Z,29.17
2018-07-19T14:34:37.437Z,28.66
2018-07-19T14:37:06.509Z,28.39
2018-07-19T14:39:35.713Z,28.33
2018-07-19T14:42:04.261Z,28.74
2018-07-19T14:44:33.090Z,29.02
2018-07-19T14:47:01.665Z,28.75
2018-07-19T14:49:30.241Z,28.48
2018-07-19T14:51:58.763Z,28.66
2018-07-19T14:54:27.456Z,28.90
2018-07-19T14:56:56.093Z,29.18
2018-07-19T14:59:24.660Z,29.31
2018-07-19T15:01:53.191Z,29.48
2018-07-19T15:04:21.774Z,29.42
2018-07-19T15:06:50.321Z,29.19
2018-07-19T15:09:18.879Z,29.26
2018-07-19T15:11:47.484Z,29.44
2018-07-19T15:14:16.019Z,29.52
2018-07-19T15:16:44.649Z,29.70
2018-07-19T15:19:13.255Z,29.78
2018-07-19T15:21:41.927Z,29.72
2018-07-19T15:24:10.587Z,29.34
2018-07-19T15:26:39.141Z,29.44
2018-07-19T15:29:07.730Z,29.57
2018-07-19T15:31:36.335Z,29.65
2018-07-19T15:34:04.982Z,29.60
2018-07-19T15:36:33.713Z,29.64
2018-07-19T15:39:02.279Z,29.52
2018-07-19T15:41:30.865Z,29.38
2018-07-19T15:43:59.404Z,29.26
2018-07-19T15:46:27.977Z,28.64
2018-07-19T15:48:56.455Z,28.42
2018-07-19T15:51:24.994Z,28.42
2018-07-19T15:53:53.506Z,28.49
2018-07-19T15:56:22.733Z,28.75
2018-07-19T15:58:57.270Z,28.91
2018-07-19T16:01:26.087Z,28.97
2018-07-19T16:03:54.818Z,28.98
2018-07-19T16:06:23.405Z,29.05
2018-07-19T16:08:52.081Z,28.94
2018-07-19T16:11:20.754Z,28.92
2018-07-19T16:13:49.536Z,29.01
2018-07-19T16:16:18.549Z,28.94
2018-07-19T16:18:47.169Z,28.89
2018-07-19T16:21:15.790Z,28.92
2018-07-19T16:23:44.762Z,28.38
2018-07-19T16:26:13.468Z,28.36
2018-07-19T16:28:42.437Z,28.37
2018-07-19T16:31:11.030Z,28.02
2018-07-19T16:33:43.032Z,27.94
2018-07-19T16:36:11.827Z,28.02
2018-07-19T16:38:41.184Z,28.09
2018-07-19T16:41:09.853Z,28.20
2018-07-19T16:43:39.153Z,28.22
2018-07-19T16:46:09.043Z,27.99
2018-07-19T16:48:38.278Z,27.85
2018-07-19T16:51:06.858Z,27.96
2018-07-19T16:53:36.706Z,28.04
2018-07-19T16:56:05.605Z,28.10
2018-07-19T16:58:34.307Z,28.13
2018-07-19T17:01:04.401Z,28.15
2018-07-19T17:03:33.123Z,28.18
2018-07-19T17:06:10.509Z,28.15
2018-07-19T17:08:40.207Z,28.12
2018-07-19T17:11:09.606Z,27.98
2018-07-19T17:13:38.827Z,27.68
2018-07-19T17:16:07.803Z,27.62
2018-07-19T17:18:36.476Z,27.68
2018-07-19T17:21:05.191Z,27.62
2018-07-19T17:23:35.094Z,27.57
2018-07-19T17:26:04.181Z,27.48
2018-07-19T17:28:33.714Z,27.23
2018-07-19T17:31:19.762Z,27.26
2018-07-19T17:33:48.522Z,27.23
2018-07-19T17:36:17.265Z,27.24
2018-07-19T17:38:46.414Z,27.16
2018-07-19T17:41:15.018Z,27.08
2018-07-19T17:43:44.113Z,27.07
2018-07-19T17:46:12.852Z,26.88
2018-07-19T17:48:41.599Z,26.82
2018-07-19T17:51:10.246Z,26.79
2018-07-19T17:53:38.981Z,26.72
2018-07-19T17:56:07.697Z,26.69
2018-07-19T17:58:36.377Z,26.61
2018-07-19T18:01:05.099Z,26.44
2018-07-19T18:03:33.806Z,26.40
2018-07-19T18:06:02.428Z,26.38
2018-07-19T18:08:35.605Z,26.29
2018-07-19T18:11:04.811Z,26.24
2018-07-19T18:13:33.405Z,26.10
2018-07-19T18:16:01.937Z,26.00
2018-07-19T18:18:30.512Z,25.97
2018-07-19T18:20:59.067Z,25.96
2018-07-19T18:23:27.721Z,25.88
2018-07-19T18:25:56.305Z,25.79
2018-07-19T18:28:24.897Z,25.71
2018-07-19T18:30:53.469Z,25.62
2018-07-19T18:33:22.463Z,25.50
2018-07-19T18:35:51.097Z,25.39
2018-07-19T18:38:19.716Z,25.31
2018-07-19T18:40:48.394Z,25.21
2018-07-19T18:43:16.928Z,25.14
2018-07-19T18:45:45.555Z,25.06
2018-07-19T18:48:14.141Z,24.98
2018-07-19T18:50:43.713Z,24.85
2018-07-19T18:53:12.812Z,24.69
2018-07-19T18:55:42.042Z,24.54
2018-07-19T18:58:10.629Z,24.42
2018-07-19T19:00:39.177Z,24.33
2018-07-19T19:03:07.732Z,24.23
2018-07-19T19:05:36.322Z,24.16
2018-07-19T19:08:05.551Z,22.72
2018-07-19T19:10:45.838Z,24.02
2018-07-19T19:13:14.530Z,24.09
2018-07-19T19:15:43.223Z,24.10
2018-07-19T19:18:12.817Z,24.07
2018-07-19T19:20:42.281Z,24.02
2018-07-19T19:23:14.037Z,23.95
2018-07-19T19:25:50.180Z,23.92
2018-07-19T19:28:18.875Z,23.93
2018-07-19T19:30:47.508Z,23.89
2018-07-19T19:33:16.243Z,23.72
2018-07-19T19:35:44.825Z,23.43
2018-07-19T19:38:13.450Z,23.23
2018-07-19T19:40:42.172Z,23.09
2018-07-19T19:43:10.760Z,22.96
2018-07-19T19:45:39.367Z,22.81
2018-07-19T19:48:07.955Z,22.71
2018-07-19T19:50:36.574Z,22.60
2018-07-19T19:53:05.155Z,22.61
2018-07-19T19:55:34.382Z,22.54
2018-07-19T19:58:03.044Z,22.55
2018-07-19T20:00:33.844Z,22.52
2018-07-19T20:03:02.570Z,22.35
2018-07-19T20:05:31.343Z,22.24
2018-07-19T20:08:00.051Z,22.15
2018-07-19T20:10:28.775Z,22.07
2018-07-19T20:12:57.522Z,21.99
2018-07-19T20:15:26.548Z,21.93
2018-07-19T20:17:55.666Z,21.81
2018-07-19T20:20:24.382Z,21.68
2018-07-19T20:22:53.427Z,21.47
2018-07-19T20:25:22.077Z,21.20
2018-07-19T20:27:50.642Z,21.07
2018-07-19T20:30:26.122Z,21.00
2018-07-19T20:32:54.789Z,20.97
2018-07-19T20:35:23.568Z,20.90
2018-07-19T20:37:52.337Z,20.79
2018-07-19T20:40:21.044Z,20.72
2018-07-19T20:42:49.912Z,20.66
2018-07-19T20:45:18.689Z,20.63
2018-07-19T20:47:48.572Z,20.66
2018-07-19T20:50:18.958Z,20.71
2018-07-19T20:52:47.600Z,20.77
2018-07-19T20:55:16.440Z,20.72
2018-07-19T20:57:45.188Z,20.58
2018-07-19T21:00:14.096Z,20.51
2018-07-19T21:02:42.860Z,20.46
2018-07-19T21:05:11.661Z,20.37
2018-07-19T21:07:40.641Z,20.26
2018-07-19T21:10:09.512Z,20.11
2018-07-19T21:12:38.296Z,20.02
2018-07-19T21:15:07.600Z,19.91
2018-07-19T21:17:36.349Z,19.88
2018-07-19T21:20:05.044Z,19.87
2018-07-19T21:22:33.936Z,19.82
2018-07-19T21:25:02.718Z,19.74
2018-07-19T21:27:31.617Z,19.62
2018-07-19T21:30:00.482Z,19.52
2018-07-19T21:32:29.202Z,19.43
2018-07-19T21:34:57.943Z,19.31
2018-07-19T21:37:26.658Z,19.20
2018-07-19T21:39:55.381Z,19.07
2018-07-19T21:42:24.206Z,18.95
2018-07-19T21:44:52.982Z,18.82
2018-07-19T21:47:21.658Z,18.76
2018-07-19T21:49:51.194Z,18.71
2018-07-19T21:52:20.016Z,18.77
2018-07-19T21:54:48.793Z,18.72
2018-07-19T21:57:17.530Z,18.66
2018-07-19T21:59:46.242Z,18.67
2018-07-19T22:02:15.548Z,18.63
2018-07-19T22:04:44.408Z,18.56
2018-07-19T22:07:13.224Z,18.46
2018-07-19T22:09:41.971Z,18.39
2018-07-19T22:12:10.689Z,18.31
2018-07-19T22:14:39.330Z,18.27
2018-07-19T22:17:08.106Z,18.25
2018-07-19T22:19:36.934Z,18.21
2018-07-19T22:22:05.727Z,18.20
2018-07-19T22:24:34.484Z,18.15
2018-07-19T22:27:03.768Z,18.12
2018-07-19T22:29:32.549Z,18.10
2018-07-19T22:32:01.233Z,17.99
2018-07-19T22:34:30.082Z,18.00
2018-07-19T22:36:59.076Z,18.00
2018-07-19T22:39:27.754Z,17.90
2018-07-19T22:41:56.474Z,17.89
2018-07-19T22:44:25.134Z,17.85
2018-07-19T22:46:53.853Z,17.91
2018-07-19T22:49:22.569Z,17.90
2018-07-19T22:51:51.284Z,17.80
2018-07-19T22:54:20.814Z,17.76
2018-07-19T22:56:49.537Z,17.68
2018-07-19T22:59:18.413Z,17.63
2018-07-19T23:01:47.220Z,17.58
2018-07-19T23:04:15.909Z,17.53
2018-07-19T23:06:44.747Z,17.42
2018-07-19T23:09:13.470Z,17.40
2018-07-19T23:11:42.155Z,17.09
2018-07-19T23:14:10.889Z,17.23
2018-07-19T23:16:39.660Z,17.12
2018-07-19T23:19:08.368Z,16.99
2018-07-19T23:21:37.045Z,16.88
2018-07-19T23:24:05.823Z,16.91
2018-07-19T23:26:34.709Z,16.90
2018-07-19T23:29:03.495Z,16.81
2018-07-19T23:31:32.319Z,16.74
2018-07-19T23:34:01.160Z,16.78
2018-07-19T23:36:33.058Z,16.58
2018-07-19T23:39:06.669Z,16.70
2018-07-19T23:41:40.271Z,16.62
2018-07-19T23:44:14.856Z,16.11
2018-07-19T23:46:47.341Z,15.95
2018-07-19T23:49:16.119Z,15.92
2018-07-19T23:51:44.846Z,15.87
2018-07-19T23:54:13.493Z,15.85
2018-07-19T23:56:42.784Z,15.86
2018-07-19T23:59:11.500Z,15.87
